EW5625 Weather Reports


Display with metric or nautical units.
time (UTC)temp
F
wind
direction
speed
MPH
gust
MPH
rain 1hr
in
rain 24hr
in
rain mn
in
humidity
%
barometer
mb
20220528184517 74 48 5.0 12.0 0.00 0.48 0.28 68 1010.1
20220528183015 73 290 6.0 13.0 0.00 0.48 0.28 69 1010.1
20220528181514 73 347 4.0 11.0 0.00 0.48 0.28 68 1010.0
20220528180013 73 307 8.0 14.0 0.03 0.48 0.28 68 1010.0
20220528174513 73 49 3.0 14.0 0.05 0.48 0.28 74 1009.8
20220528173012 71 278 5.0 10.0 0.05 0.48 0.28 80 1009.9
20220528171513 68 309 2.0 6.0 0.05 0.48 0.28 83 1009.9
20220528170030 71 284 5.0 11.0 0.01 0.44 0.25 74 1010.0
20220528164517 72 32 6.0 10.0 0.00 0.43 0.24 70 1009.7
20220528163007 72 326 4.0 12.0 0.00 0.43 0.24 72 1009.6
20220528161510 72 300 5.0 11.0 0.00 0.43 0.24 71 1009.6
20220528160005 72 250 5.0 10.0 0.00 0.43 0.24 72 1009.5
20220528154509 72 323 5.0 9.0 0.00 0.43 0.24 75 1009.6
20220528153001 71 300 3.0 9.0 0.00 0.43 0.24 77 1009.6
20220528151614 71 307 6.0 10.0 0.00 0.43 0.24 75 1009.7
20220528150059 70 271 6.0 11.0 0.00 0.43 0.24 77 1009.8
20220528144555 70 347 4.0 11.0 0.00 0.43 0.24 78 1009.6
20220528143059 69 281 4.0 14.0 0.00 0.43 0.24 78 1009.5
20220528141551 69 304 6.0 11.0 0.00 0.43 0.24 77 1009.4
20220528140050 68 301 4.0 14.0 0.00 0.43 0.24 81 1009.6
20220528134548 68 283 8.0 13.0 0.00 0.43 0.24 81 1009.6
20220528133053 67 285 6.0 11.0 0.00 0.43 0.24 84 1009.8
20220528131543 66 285 4.0 11.0 0.00 0.43 0.24 86 1009.9
20220528130041 67 257 3.0 10.0 0.00 0.43 0.24 86 1009.6
20220528124608 67 251 3.0 8.0 0.00 0.43 0.24 87 1009.5
20220528123039 67 291 2.0 9.0 0.00 0.43 0.24 88 1009.1
20220528121603 66 226 3.0 8.0 0.00 0.43 0.24 90 1008.9
20220528120033 65 276 3.0 7.0 0.00 0.43 0.24 91 1008.7
20220528114548 65 285 2.0 4.0 0.00 0.43 0.24 92 1008.6
20220528113031 64 247 1.0 4.0 0.00 0.43 0.24 93 1008.4
20220528111529 64 279 1.0 3.0 0.00 0.43 0.24 96 1008.2
20220528110028 62 269 1.0 3.0 0.00 0.43 0.24 97 1008.2
20220528104527 62 209 0.0 2.0 0.01 0.43 0.24 97 1008.0
20220528103025 62 264 2.0 5.0 0.01 0.43 0.24 97 1008.3
20220528101624 62 290 3.0 7.0 0.01 0.43 0.24 97 1007.9
20220528100025 62 250 2.0 4.0 0.01 0.43 0.24 97 1007.9
20220528094523 62 277 0.0 1.0 0.01 0.43 0.23 97 1007.5
20220528093020 62 281 0.0 3.0 0.01 0.43 0.23 97 1007.6
20220528091521 62 215 2.0 5.0 0.01 0.43 0.23 97 1007.9
20220528090021 62 251 0.0 3.0 0.01 0.43 0.23 97 1007.9
20220528084521 62 267 1.0 4.0 0.00 0.42 0.22 97 1007.9
20220528083031 62 255 2.0 6.0 0.00 0.42 0.22 97 1008.0
20220528081521 62 260 2.0 5.0 0.00 0.42 0.22 97 1008.0
20220528080019 62 278 3.0 5.0 0.00 0.42 0.22 97 1007.7
20220528074528 62 269 0.0 3.0 0.00 0.42 0.22 97 1007.3
20220528073016 62 256 1.0 4.0 0.01 0.42 0.22 97 1007.5
20220528071518 62 282 1.0 3.0 0.01 0.42 0.22 97 1007.6
20220528070015 63 236 1.0 5.0 0.01 0.42 0.22 97 1007.7
20220528064515 63 246 2.0 4.0 0.00 0.41 0.21 97 1007.7
20220528063012 64 250 0.0 2.0 0.00 0.41 0.21 97 1007.6
20220528061509 64 226 1.0 4.0 0.00 0.41 0.21 97 1007.9
20220528060016 65 259 2.0 4.0 0.00 0.41 0.21 98 1007.9
20220528054510 63 286 0.0 1.0 0.00 0.41 0.21 98 1007.7
20220528053007 64 286 0.0 2.0 0.00 0.41 0.21 98 1007.8
20220528051509 64 254 0.0 1.0 0.01 0.41 0.21 98 1007.8
20220528050005 64 231 1.0 3.0 0.21 0.41 0.21 98 1007.9
20220528044502 65 131 0.0 2.0 0.28 0.41 0.21 98 1007.7
20220528043105 65 95 0.0 2.0 0.28 0.41 0.21 98 1008.3
20220528041601 66 306 0.0 2.0 0.28 0.40 0.20 98 1008.3
20220528040054 66 314 0.0 5.0 0.09 0.20 0.00 98 1008.9
20220528034608 67 269 2.0 3.0 0.04 0.12 0.11 98 1008.7
20220528033051 67 1 0.0 2.0 0.06 0.12 0.11 98 1008.5
20220528031550 67 276 0.0 1.0 0.07 0.12 0.11 98 1008.8
20220528030049 67 113 1.0 4.0 0.06 0.11 0.10 98 1008.2
20220528024545 67 135 0.0 2.0 0.03 0.08 0.07 97 1009.2
20220528023059 67 204 0.0 3.0 0.02 0.06 0.05 97 1009.2
20220528021545 67 209 2.0 4.0 0.01 0.05 0.04 97 1009.2
20220528020051 67 149 1.0 3.0 0.01 0.05 0.04 97 1009.3
20220528014556 68 98 0.0 3.0 0.01 0.05 0.04 96 1009.4
20220528013043 68 173 1.0 3.0 0.00 0.04 0.03 96 1009.7
20220528011543 68 155 1.0 4.0 0.00 0.04 0.03 95 1009.6
20220528010040 68 195 1.0 4.0 0.00 0.04 0.03 95 1009.3
20220528004554 68 230 1.0 4.0 0.00 0.04 0.03 95 1009.4
20220528003038 68 141 2.0 7.0 0.00 0.04 0.03 94 1009.5
20220528001539 68 168 1.0 4.0 0.00 0.04 0.03 94 1009.6
20220528000036 68 218 2.0 5.0 0.00 0.04 0.03 94 1009.9
20220527234535 68 184 1.0 5.0 0.00 0.04 0.03 93 1009.8
20220527233036 68 237 2.0 7.0 0.00 0.04 0.03 93 1009.6
20220527231538 69 200 2.0 6.0 0.00 0.04 0.03 92 1009.7
20220527230053 69 242 3.0 5.0 0.00 0.04 0.03 91 1009.4
20220527224533 69 181 2.0 9.0 0.00 0.04 0.03 90 1009.4
20220527223037 70 181 3.0 7.0 0.00 0.04 0.03 90 1009.4
20220527221532 69 210 3.0 11.0 0.00 0.04 0.03 89 1009.6
20220527220030 70 165 2.0 11.0 0.00 0.04 0.03 90 1009.6
20220527214530 70 257 2.0 6.0 0.00 0.04 0.03 90 1009.7
20220527213026 70 197 3.0 8.0 0.00 0.04 0.03 90 1009.9
20220527211525 70 199 2.0 7.0 0.00 0.04 0.03 90 1010.1
20220527210025 69 205 3.0 8.0 0.00 0.04 0.03 91 1010.3
20220527204521 69 224 3.0 8.0 0.00 0.04 0.03 91 1010.8
20220527203022 69 158 2.0 10.0 0.00 0.04 0.03 92 1011.0
20220527201520 69 210 5.0 13.0 0.00 0.04 0.03 91 1010.7
20220527200020 69 187 3.0 7.0 0.00 0.04 0.03 94 1010.8
20220527194518 69 195 2.0 9.0 0.01 0.04 0.03 94 1010.8
20220527193019 68 309 2.0 6.0 0.02 0.04 0.03 92 1011.2
20220527191519 68 189 1.0 5.0 0.03 0.04 0.03 93 1010.7
20220527190016 68 225 1.0 5.0 0.03 0.04 0.03 94 1011.2